Time;durP1;ratioP1;P1;durP2;ratioP2;P2;SDS_P1;SDS_P2;PMS_P1;PMS_P2;Temp;Humidity;BMP_temperature;BMP_pressure;BME280_temperature;BME280_humidity;BME280_pressure;Samples;Min_cycle;Max_cycle;Signal;HPM_P1;HPM_P2
2023/10/14 00:02:05;;;;;;;32.05;25.05;;;16.30;99.90;;;;;;4976711;28;20048;-55
2023/10/14 00:04:31;;;;;;;32.90;25.52;;;16.30;99.90;;;;;;5009175;28;20033;-55
2023/10/14 00:07:06;;;;;;;27.38;24.35;;;16.10;99.90;;;;;;5009302;28;20096;-55
2023/10/14 00:09:42;;;;;;;34.95;25.83;;;16.00;99.90;;;;;;4979282;28;20042;-55
2023/10/14 00:12:13;;;;;;;35.92;25.83;;;16.30;99.90;;;;;;5009380;28;20041;-55
2023/10/14 00:14:42;;;;;;;33.13;25.88;;;16.60;99.90;;;;;;5009463;28;20493;-56
2023/10/14 00:17:14;;;;;;;31.42;25.75;;;16.80;99.90;;;;;;5009548;28;20038;-55
2023/10/14 00:19:40;;;;;;;27.98;23.73;;;16.90;99.90;;;;;;5009308;28;20042;-55
2023/10/14 00:22:07;;;;;;;29.63;23.95;;;16.90;99.90;;;;;;5009550;28;20053;-55
2023/10/14 00:24:33;;;;;;;30.02;23.90;;;17.00;99.90;;;;;;5010563;28;20073;-55
2023/10/14 00:26:59;;;;;;;28.75;23.90;;;17.00;99.90;;;;;;5013033;28;20124;-55
2023/10/14 00:29:29;;;;;;;30.45;24.25;;;16.90;99.90;;;;;;5013042;28;20033;-55
2023/10/14 00:31:54;;;;;;;35.28;25.17;;;16.90;99.90;;;;;;5040690;28;20073;-55
2023/10/14 00:34:25;;;;;;;30.08;23.52;;;17.00;99.90;;;;;;5055323;28;20471;-55
2023/10/14 00:36:55;;;;;;;27.33;24.13;;;17.00;99.90;;;;;;5054909;28;20033;-55
2023/10/14 00:39:28;;;;;;;32.65;24.65;;;17.00;99.90;;;;;;5055280;28;20033;-55
2023/10/14 00:41:55;;;;;;;29.45;24.48;;;17.00;99.90;;;;;;5054903;28;20076;-55
2023/10/14 00:44:25;;;;;;;34.38;25.40;;;17.00;99.90;;;;;;5054821;28;20025;-55
2023/10/14 00:46:53;;;;;;;31.20;25.33;;;17.00;99.90;;;;;;5055018;28;20060;-55
2023/10/14 00:49:31;;;;;;;30.30;24.38;;;17.00;99.90;;;;;;5052674;28;20057;-56
2023/10/14 00:52:05;;;;;;;31.27;25.80;;;17.10;99.90;;;;;;5054719;28;20037;-55
2023/10/14 00:57:05;;;;;;;34.33;26.70;;;17.00;99.90;;;;;;5054411;28;20083;-55
2023/10/14 00:59:31;;;;;;;31.45;26.60;;;17.00;99.90;;;;;;5054580;28;20484;-55
2023/10/14 01:01:58;;;;;;;35.15;27.75;;;17.10;99.90;;;;;;5054442;28;20091;-55
2023/10/14 01:04:34;;;;;;;33.58;28.15;;;17.10;99.90;;;;;;5054939;28;20128;-55
2023/10/14 01:07:04;;;;;;;36.58;26.75;;;17.00;99.90;;;;;;5054197;28;20044;-55
2023/10/14 01:12:06;;;;;;;33.33;28.77;;;17.00;99.90;;;;;;5054332;28;20060;-55
2023/10/14 01:14:33;;;;;;;32.08;28.58;;;17.00;99.90;;;;;;5054230;28;20470;-55
2023/10/14 01:17:00;;;;;;;28.67;24.42;;;17.10;99.90;;;;;;5054133;28;20033;-55
2023/10/14 01:19:28;;;;;;;29.40;23.17;;;17.10;99.90;;;;;;5054294;28;20029;-56
2023/10/14 01:21:53;;;;;;;31.23;23.70;;;17.00;99.90;;;;;;5054325;28;20041;-55
2023/10/14 01:24:21;;;;;;;30.45;22.27;;;17.00;99.90;;;;;;5052011;28;20491;-55
2023/10/14 01:27:00;;;;;;;26.00;21.10;;;16.90;99.90;;;;;;5054064;28;20036;-55
2023/10/14 01:29:30;;;;;;;28.85;21.83;;;16.90;99.90;;;;;;5052859;28;20388;-55
2023/10/14 01:32:10;;;;;;;30.75;22.67;;;16.80;99.90;;;;;;5068486;28;20047;-55
2023/10/14 01:34:42;;;;;;;27.27;21.98;;;16.90;99.90;;;;;;5053877;28;20159;-55
2023/10/14 01:37:19;;;;;;;30.77;25.40;;;16.80;99.90;;;;;;5052643;28;20440;-55
2023/10/14 01:39:56;;;;;;;26.80;23.75;;;16.70;99.90;;;;;;5053893;28;20029;-55
2023/10/14 01:42:23;;;;;;;31.55;23.33;;;16.60;99.90;;;;;;5053819;28;20025;-55
2023/10/14 01:44:53;;;;;;;29.48;24.50;;;16.70;99.90;;;;;;5053538;28;20025;-55
2023/10/14 01:47:25;;;;;;;34.13;27.00;;;16.60;99.90;;;;;;5053960;28;20426;-55
2023/10/14 01:49:51;;;;;;;31.58;25.98;;;16.60;99.90;;;;;;5053749;28;20033;-56
2023/10/14 01:52:19;;;;;;;30.63;25.67;;;16.70;99.90;;;;;;5053296;28;20029;-55
2023/10/14 01:54:50;;;;;;;30.75;23.83;;;16.70;99.90;;;;;;5052573;28;20090;-55
2023/10/14 01:57:17;;;;;;;28.45;25.02;;;16.70;99.90;;;;;;5039341;28;20033;-55
2023/10/14 01:59:49;;;;;;;30.17;23.23;;;16.60;99.90;;;;;;5031509;28;20064;-55
2023/10/14 02:02:20;;;;;;;31.20;24.75;;;16.50;99.90;;;;;;5033687;28;20033;-55
2023/10/14 02:04:46;;;;;;;32.63;22.60;;;16.60;99.90;;;;;;5033456;28;20061;-55
2023/10/14 02:07:19;;;;;;;24.15;20.75;;;16.60;99.90;;;;;;5047823;28;20110;-55
2023/10/14 02:09:45;;;;;;;26.80;21.90;;;16.60;99.90;;;;;;5033366;28;20163;-55
2023/10/14 02:12:12;;;;;;;24.30;21.75;;;16.60;99.90;;;;;;5033438;28;20029;-55
2023/10/14 02:14:44;;;;;;;25.00;22.30;;;16.60;99.90;;;;;;5033200;28;20037;-55
2023/10/14 02:17:12;;;;;;;27.92;22.35;;;16.60;99.90;;;;;;5033143;28;20040;-56
2023/10/14 02:19:39;;;;;;;26.90;21.83;;;16.60;99.90;;;;;;5033377;28;20026;-55
2023/10/14 02:22:11;;;;;;;24.23;20.70;;;16.50;99.90;;;;;;5032967;28;20034;-55
2023/10/14 02:24:37;;;;;;;24.80;21.55;;;16.50;99.90;;;;;;5047490;28;20120;-55
2023/10/14 02:27:13;;;;;;;28.10;22.23;;;16.50;99.90;;;;;;5030658;28;20639;-55
2023/10/14 02:29:43;;;;;;;26.98;21.95;;;16.50;99.90;;;;;;5032860;28;20033;-55
2023/10/14 02:32:12;;;;;;;31.67;22.05;;;16.50;99.90;;;;;;5032804;28;20041;-55
2023/10/14 02:34:39;;;;;;;26.63;20.75;;;16.60;99.90;;;;;;5032850;28;20026;-55
2023/10/14 02:37:07;;;;;;;27.98;21.85;;;16.50;99.90;;;;;;5033123;28;20017;-55
2023/10/14 02:39:33;;;;;;;27.65;22.65;;;16.50;99.90;;;;;;5032870;28;20037;-55
2023/10/14 02:41:59;;;;;;;30.30;24.30;;;16.40;99.90;;;;;;5041150;28;20536;-55
2023/10/14 02:44:30;;;;;;;31.75;27.63;;;16.30;99.90;;;;;;5052580;28;20053;-55
2023/10/14 02:47:01;;;;;;;38.90;27.75;;;16.10;99.90;;;;;;5051655;28;20045;-55
2023/10/14 02:49:27;;;;;;;36.72;31.65;;;16.10;99.90;;;;;;5052419;28;20102;-55
2023/10/14 02:52:00;;;;;;;42.72;27.17;;;16.10;99.90;;;;;;5052706;28;20559;-55
2023/10/14 02:54:33;;;;;;;37.83;30.80;;;16.10;99.90;;;;;;5050200;28;20049;-55
2023/10/14 02:57:00;;;;;;;38.00;33.83;;;16.20;99.90;;;;;;5052323;28;20064;-55
2023/10/14 02:59:44;;;;;;;39.85;31.98;;;16.20;99.90;;;;;;5051748;28;20013;-55
2023/10/14 03:07:31;;;;;;;38.83;31.98;;;16.30;99.90;;;;;;5049470;28;20163;-55
2023/10/14 03:12:50;;;;;;;48.63;37.40;;;16.30;99.90;;;;;;5049455;28;20744;-55
2023/10/14 03:15:21;;;;;;;45.78;35.47;;;16.30;99.90;;;;;;5049425;28;20039;-55
2023/10/14 03:18:01;;;;;;;40.00;35.35;;;16.30;99.90;;;;;;5049604;28;20027;-55
2023/10/14 03:23:19;;;;;;;38.28;33.13;;;16.10;99.90;;;;;;5049608;28;20032;-54
2023/10/14 03:25:47;;;;;;;34.17;30.02;;;16.10;99.90;;;;;;5049337;28;20043;-55
2023/10/14 03:28:16;;;;;;;34.40;29.88;;;16.10;99.90;;;;;;5049550;28;20112;-55
2023/10/14 03:30:46;;;;;;;37.10;28.90;;;16.10;99.90;;;;;;5049297;28;20601;-55
2023/10/14 03:33:14;;;;;;;38.22;26.88;;;16.10;99.90;;;;;;5049132;28;20056;-56
2023/10/14 03:35:42;;;;;;;32.38;27.33;;;16.10;99.90;;;;;;4999312;28;20162;-55
2023/10/14 03:38:24;;;;;;;34.50;26.83;;;16.10;99.90;;;;;;5046519;28;20138;-55
2023/10/14 03:41:02;;;;;;;;;;;16.10;99.90;;;;;;5033124;28;20040;-56
2023/10/14 03:43:42;;;;;;;30.88;25.17;;;16.10;99.90;;;;;;5049296;28;19904;-55
2023/10/14 03:46:12;;;;;;;31.42;26.48;;;16.10;99.90;;;;;;5052167;28;20040;-55
2023/10/14 03:48:48;;;;;;;33.08;25.02;;;16.00;99.90;;;;;;5051593;28;20032;-55
2023/10/14 03:51:27;;;;;;;31.60;26.52;;;15.90;99.90;;;;;;5051308;28;20106;-56
2023/10/14 03:53:55;;;;;;;26.88;23.17;;;15.90;99.90;;;;;;5051477;28;20049;-55
2023/10/14 03:56:25;;;;;;;29.40;25.17;;;15.80;99.90;;;;;;5051338;28;20029;-55
2023/10/14 03:58:55;;;;;;;31.80;25.33;;;15.80;99.90;;;;;;5067962;28;20118;-55
2023/10/14 04:01:23;;;;;;;31.15;24.70;;;15.80;99.90;;;;;;5055734;28;20028;-55
2023/10/14 04:03:52;;;;;;;32.22;24.52;;;15.80;99.90;;;;;;5055553;28;20033;-55
2023/10/14 04:06:21;;;;;;;33.38;25.00;;;15.70;99.90;;;;;;5055005;28;20045;-55
2023/10/14 04:08:48;;;;;;;35.80;25.55;;;15.70;99.90;;;;;;5055486;28;20037;-55
2023/10/14 04:11:35;;;;;;;34.28;23.73;;;15.80;99.90;;;;;;5055818;28;20480;-55
2023/10/14 04:14:03;;;;;;;30.95;22.23;;;15.80;99.90;;;;;;5055455;28;20029;-55
2023/10/14 04:19:44;;;;;;;25.98;21.77;;;15.70;99.90;;;;;;5055506;28;20682;-55
2023/10/14 04:22:32;;;;;;;25.55;20.85;;;15.70;99.90;;;;;;5055569;28;20384;-55
2023/10/14 04:27:46;;;;;;;24.85;18.33;;;15.70;99.90;;;;;;5054975;28;20044;-55
2023/10/14 04:33:04;;;;;;;24.45;18.70;;;15.80;99.90;;;;;;5043549;28;20036;-55
2023/10/14 04:35:36;;;;;;;22.60;17.90;;;15.80;99.90;;;;;;5036933;28;20044;-55
2023/10/14 04:38:12;;;;;;;;;;;15.90;99.90;;;;;;5055386;28;20037;-56
2023/10/14 04:40:38;;;;;;;25.58;17.63;;;16.00;99.90;;;;;;5035611;28;19909;-55
2023/10/14 04:45:52;;;;;;;22.92;17.20;;;16.00;99.90;;;;;;5045127;28;20037;-55
2023/10/14 04:48:28;;;;;;;25.98;16.90;;;16.10;99.90;;;;;;5034960;28;20040;-55
2023/10/14 04:50:57;;;;;;;23.95;16.27;;;16.20;99.90;;;;;;5035074;28;20033;-56
2023/10/14 04:53:26;;;;;;;22.92;16.35;;;16.20;99.90;;;;;;5034635;28;20045;-56
2023/10/14 04:55:53;;;;;;;22.55;15.38;;;16.30;99.90;;;;;;5034612;28;20035;-55
2023/10/14 04:58:32;;;;;;;25.17;15.38;;;16.40;99.90;;;;;;5036894;28;20109;-56
2023/10/14 05:01:00;;;;;;;23.25;13.98;;;16.40;99.90;;;;;;5042101;28;20032;-55
2023/10/14 05:03:29;;;;;;;17.45;13.93;;;16.40;99.90;;;;;;5054648;28;20025;-55
2023/10/14 05:05:56;;;;;;;23.45;15.38;;;16.50;99.90;;;;;;5045262;28;20147;-56
2023/10/14 05:08:24;;;;;;;22.90;14.82;;;16.60;99.90;;;;;;5044797;28;20036;-56
2023/10/14 05:10:53;;;;;;;34.40;16.55;;;16.70;99.90;;;;;;5043252;28;20470;-55
2023/10/14 05:13:31;;;;;;;19.52;14.95;;;16.70;99.90;;;;;;5057433;28;20477;-55
2023/10/14 05:16:20;;;;;;;20.15;13.73;;;16.70;99.90;;;;;;5039637;28;20693;-55
2023/10/14 05:21:44;;;;;;;25.88;17.10;;;16.40;99.90;;;;;;5039998;28;20099;-55
2023/10/14 05:24:11;;;;;;;24.55;17.60;;;16.00;99.90;;;;;;5037359;28;20037;-55
2023/10/14 05:26:46;;;;;;;20.90;17.25;;;15.80;99.90;;;;;;5030666;28;20100;-55
2023/10/14 05:29:19;;;;;;;19.33;16.27;;;15.60;99.90;;;;;;5030971;28;20119;-55
2023/10/14 05:31:48;;;;;;;19.67;15.65;;;;;;;;;;5030389;28;20052;-55
2023/10/14 05:34:15;;;;;;;19.33;14.70;;;;;;;;;;5031777;28;20392;-56
2023/10/14 05:36:41;;;;;;;20.88;15.05;;;;;;;;;;5014599;28;20033;-57
2023/10/14 05:39:10;;;;;;;16.38;13.23;;;;;;;;;;5031531;28;20056;-57
2023/10/14 05:41:39;;;;;;;21.95;14.73;;;;;;;;;;5031138;28;20045;-57
2023/10/14 05:44:08;;;;;;;20.40;14.32;;;19.60;99.90;;;;;;5031327;28;20037;-57
2023/10/14 05:46:34;;;;;;;23.10;14.52;;;19.50;99.90;;;;;;5033183;28;20033;-57
2023/10/14 05:49:01;;;;;;;18.88;14.32;;;20.10;99.90;;;;;;5042543;28;20167;-56
2023/10/14 05:51:27;;;;;;;18.45;13.93;;;20.90;99.90;;;;;;5041697;28;20090;-55
2023/10/14 05:53:53;;;;;;;19.10;12.43;;;;;;;;;;5040216;28;20053;-55
2023/10/14 05:56:20;;;;;;;17.52;12.13;;;;;;;;;;5040139;28;20060;-55
2023/10/14 05:58:46;;;;;;;18.25;11.70;;;23.90;99.90;;;;;;5044439;28;20025;-58
2023/10/14 06:01:16;;;;;;;15.88;12.32;;;24.00;99.90;;;;;;5053448;28;20031;-57
2023/10/14 06:03:42;;;;;;;19.60;12.23;;;24.50;99.90;;;;;;5053417;28;20754;-57
2023/10/14 06:06:09;;;;;;;16.70;11.65;;;24.10;99.90;;;;;;5047089;28;20463;-56
2023/10/14 06:08:38;;;;;;;19.10;11.77;;;22.90;99.90;;;;;;5033468;28;20456;-57
2023/10/14 06:11:07;;;;;;;17.65;11.65;;;22.90;99.90;;;;;;5037630;28;20056;-56
2023/10/14 06:13:34;;;;;;;14.80;10.48;;;22.80;99.90;;;;;;5033305;28;20049;-55
2023/10/14 06:16:04;;;;;;;14.50;10.63;;;22.90;99.90;;;;;;5033305;28;20025;-57
2023/10/14 06:18:31;;;;;;;15.48;9.65;;;;;;;;;;5033399;28;20029;-57
2023/10/14 06:20:57;;;;;;;15.00;10.20;;;24.00;99.90;;;;;;5033237;28;20385;-56
2023/10/14 06:23:26;;;;;;;14.18;9.90;;;;;;;;;;5047760;28;20039;-56
2023/10/14 06:25:53;;;;;;;16.08;10.88;;;;;;;;;;5050175;28;20021;-55
2023/10/14 06:28:19;;;;;;;15.55;10.63;;;;;;;;;;5052386;28;20104;-57
2023/10/14 06:30:46;;;;;;;12.52;9.57;;;;;;;;;;5033648;28;20033;-58
2023/10/14 06:33:12;;;;;;;13.15;9.98;;;;;;;;;;5033198;28;20036;-58
2023/10/14 06:35:45;;;;;;;13.85;9.55;;;;;;;;;;5032804;28;20071;-54
2023/10/14 06:38:17;;;;;;;16.95;9.43;;;;;;;;;;5047223;28;20037;-57
2023/10/14 06:40:44;;;;;;;16.55;9.40;;;29.30;99.90;;;;;;5052690;28;20029;-56
2023/10/14 06:43:10;;;;;;;16.80;9.68;;;;;;;;;;5052692;28;20044;-56
2023/10/14 06:45:37;;;;;;;14.05;10.38;;;;;;;;;;5052716;28;20528;-57
2023/10/14 06:48:14;;;;;;;12.20;9.73;;;;;;;;;;5051500;28;20529;-58
2023/10/14 06:50:47;;;;;;;10.65;8.75;;;;;;;;;;5046894;28;20024;-57
2023/10/14 06:53:15;;;;;;;14.35;9.23;;;;;;;;;;5032387;28;20187;-57
2023/10/14 06:55:41;;;;;;;12.55;7.97;;;29.00;99.30;;;;;;5033005;28;20033;-58
2023/10/14 06:58:12;;;;;;;11.88;7.72;;;;;;;;;;5032708;28;20025;-55
2023/10/14 07:00:39;;;;;;;13.43;8.50;;;;;;;;;;5032543;28;20036;-58
2023/10/14 07:03:10;;;;;;;14.40;8.30;;;28.60;99.60;;;;;;5032503;28;20079;-57
2023/10/14 07:05:56;;;;;;;11.52;7.47;;;;;;;;;;5032317;28;20033;-55
2023/10/14 07:08:23;;;;;;;13.05;7.72;;;32.60;99.90;;;;;;5039941;28;20576;-57
2023/10/14 07:10:50;;;;;;;12.98;7.55;;;32.40;97.90;;;;;;5042408;28;20037;-57
2023/10/14 07:13:17;;;;;;;16.40;9.35;;;;;;;;;;5040606;28;20029;-57
2023/10/14 07:15:44;;;;;;;13.68;9.75;;;;;;;;;;5042359;28;20469;-56
2023/10/14 07:18:13;;;;;;;14.40;9.30;;;;;;;;;;5042112;28;20465;-56
2023/10/14 07:20:41;;;;;;;13.70;9.18;;;31.50;99.90;;;;;;5040048;28;20030;-56
2023/10/14 07:23:08;;;;;;;19.38;9.13;;;;;;;;;;5031858;28;20037;-57
2023/10/14 07:25:36;;;;;;;29.45;15.90;;;33.80;97.00;;;;;;5031822;28;20021;-58
2023/10/14 07:28:07;;;;;;;16.13;9.88;;;34.80;96.60;;;;;;5046590;28;20041;-58
2023/10/14 07:30:34;;;;;;;31.40;16.50;;;35.00;99.90;;;;;;5031843;28;20033;-57
2023/10/14 07:33:01;;;;;;;16.20;9.73;;;;;;;;;;5031339;28;20038;-56
2023/10/14 07:35:28;;;;;;;15.18;8.80;;;;;;;;;;5046370;28;20088;-56
2023/10/14 07:37:53;;;;;;;14.77;9.88;;;37.10;99.90;;;;;;5030847;28;20477;-57
2023/10/14 07:40:23;;;;;;;14.23;9.57;;;;;;;;;;5031762;28;20075;-56
2023/10/14 07:43:04;;;;;;;16.08;9.73;;;37.70;93.20;;;;;;5046415;28;20033;-59
2023/10/14 07:45:33;;;;;;;;;;;37.90;92.90;;;;;;5032533;28;20100;-59
2023/10/14 07:48:08;;;;;;;14.75;9.00;;;37.60;92.30;;;;;;5031965;28;19949;-60
2023/10/14 07:50:42;;;;;;;18.02;9.90;;;38.30;99.90;;;;;;5032864;28;20037;-59
2023/10/14 07:53:10;;;;;;;14.23;9.38;;;;;;;;;;5032929;28;20049;-57
2023/10/14 07:55:39;;;;;;;14.90;10.48;;;38.30;99.90;;;;;;5045487;28;20044;-57
2023/10/14 07:58:08;;;;;;;14.07;9.50;;;38.80;99.80;;;;;;5051754;28;20036;-56
2023/10/14 08:00:39;;;;;;;15.23;8.23;;;;;;;;;;5051445;28;20032;-57
2023/10/14 08:03:07;;;;;;;15.55;7.85;;;38.80;99.90;;;;;;5043709;28;20025;-59
2023/10/14 08:05:39;;;;;;;11.60;7.10;;;;;;;;;;5031905;28;20037;-59
2023/10/14 08:08:06;;;;;;;12.75;7.05;;;;;;;;;;5029355;28;20087;-57
2023/10/14 08:10:33;;;;;;;17.27;7.03;;;39.40;88.10;;;;;;5031601;28;20484;-60
2023/10/14 08:13:04;;;;;;;11.95;6.63;;;39.30;89.10;;;;;;5031669;28;20431;-58
2023/10/14 08:15:31;;;;;;;14.80;8.82;;;39.10;88.40;;;;;;5032601;28;20118;-56
2023/10/14 08:18:00;;;;;;;15.30;8.45;;;38.00;86.90;;;;;;5042599;28;20495;-56
2023/10/14 08:20:30;;;;;;;10.30;6.53;;;37.80;88.80;;;;;;5040343;28;20025;-56
2023/10/14 08:22:57;;;;;;;27.63;12.93;;;38.30;87.20;;;;;;5041848;28;20068;-57
2023/10/14 08:25:28;;;;;;;17.45;11.20;;;38.70;87.70;;;;;;5043659;28;20089;-57
2023/10/14 08:27:55;;;;;;;12.73;6.93;;;;;;;;;;5041706;28;20045;-57
2023/10/14 08:30:24;;;;;;;11.45;7.70;;;39.30;84.60;;;;;;5046502;28;20036;-56
2023/10/14 08:32:52;;;;;;;17.35;8.18;;;39.80;92.20;;;;;;5051589;28;20078;-55
2023/10/14 08:35:19;;;;;;;16.48;9.43;;;39.90;94.60;;;;;;5051421;28;20033;-55
2023/10/14 08:37:47;;;;;;;13.52;8.85;;;38.60;86.30;;;;;;5043022;28;20041;-55
2023/10/14 08:40:21;;;;;;;10.90;7.20;;;39.30;95.10;;;;;;5035192;28;20041;-54
2023/10/14 08:42:51;;;;;;;14.80;8.02;;;;;;;;;;5038717;28;20109;-54
2023/10/14 08:45:22;;;;;;;49.15;21.80;;;;;;;;;;5059908;28;20500;-54
2023/10/14 08:47:52;;;;;;;28.87;15.40;;;39.10;83.30;;;;;;5060999;28;20046;-55
2023/10/14 08:50:25;;;;;;;20.57;9.93;;;40.00;83.30;;;;;;5032420;28;20060;-55
2023/10/14 08:52:54;;;;;;;11.60;7.03;;;39.10;82.60;;;;;;5034620;28;20129;-55
2023/10/14 08:55:20;;;;;;;12.40;6.10;;;;;;;;;;5038609;28;20044;-55
2023/10/14 08:57:47;;;;;;;7.75;5.50;;;;;;;;;;5034658;28;20029;-55
2023/10/14 09:00:23;;;;;;;10.50;6.70;;;39.70;81.40;;;;;;5034314;28;20508;-55
2023/10/14 09:02:50;;;;;;;12.88;6.28;;;;;;;;;;5034303;28;20487;-55
2023/10/14 09:05:17;;;;;;;48.20;17.88;;;;;;;;;;5049222;28;20042;-55
2023/10/14 09:07:50;;;;;;;13.52;7.32;;;40.30;81.20;;;;;;5034209;28;20048;-55
2023/10/14 09:10:19;;;;;;;14.88;8.07;;;39.20;80.40;;;;;;5033417;28;20029;-54
2023/10/14 09:12:55;;;;;;;35.22;15.93;;;39.90;81.80;;;;;;5048831;28;20037;-55
2023/10/14 09:15:22;;;;;;;17.27;9.90;;;40.20;80.10;;;;;;5044863;28;20067;-55
2023/10/14 09:17:48;;;;;;;8.23;4.85;;;39.80;79.60;;;;;;5034585;28;20706;-55
2023/10/14 09:20:37;;;;;;;10.02;5.85;;;40.10;77.90;;;;;;5034233;28;20029;-55
2023/10/14 09:23:16;;;;;;;13.90;7.93;;;40.50;76.10;;;;;;5033836;28;20036;-54
2023/10/14 09:25:43;;;;;;;11.20;7.95;;;;;;;;;;5033924;28;20025;-55
2023/10/14 09:28:09;;;;;;;8.02;5.25;;;40.70;76.20;;;;;;5034188;28;20030;-54
2023/10/14 09:30:44;;;;;;;11.60;5.80;;;40.50;76.20;;;;;;5034342;28;20026;-55
2023/10/14 09:33:17;;;;;;;12.85;6.32;;;40.60;76.70;;;;;;5034160;28;20030;-55
2023/10/14 09:35:48;;;;;;;11.13;5.63;;;40.70;75.80;;;;;;5033996;28;20084;-55
2023/10/14 09:38:18;;;;;;;;;;;40.50;75.50;;;;;;5034533;28;20072;-54
2023/10/14 09:40:53;;;;;;;22.35;6.75;;;40.00;75.50;;;;;;5034308;28;19909;-55
2023/10/14 09:43:23;;;;;;;9.20;5.13;;;40.10;76.00;;;;;;5034099;28;20091;-54
2023/10/14 09:45:51;;;;;;;11.15;7.25;;;39.90;75.40;;;;;;5032579;28;20358;-54
2023/10/14 09:48:19;;;;;;;7.75;5.28;;;39.40;76.10;;;;;;5048349;28;20276;-54
2023/10/14 09:50:45;;;;;;;10.27;5.07;;;39.70;75.90;;;;;;5033696;28;20025;-55
2023/10/14 09:53:14;;;;;;;8.75;5.35;;;39.70;75.60;;;;;;5031435;28;20053;-54
2023/10/14 09:55:44;;;;;;;11.80;5.95;;;40.00;76.20;;;;;;5033405;28;20029;-55
2023/10/14 09:58:18;;;;;;;12.43;5.50;;;39.60;75.90;;;;;;5033595;28;20037;-54
2023/10/14 10:00:45;;;;;;;9.25;5.53;;;39.70;76.40;;;;;;5033600;28;20083;-55
2023/10/14 10:03:12;;;;;;;7.32;5.05;;;39.70;75.80;;;;;;5032362;28;20022;-54
2023/10/14 10:05:44;;;;;;;7.85;5.35;;;38.90;75.50;;;;;;5033228;28;20053;-54
2023/10/14 10:08:17;;;;;;;8.43;5.00;;;;;;;;;;5033506;28;20112;-54
2023/10/14 10:10:44;;;;;;;8.68;5.10;;;;;;;;;;5033584;28;20037;-54
2023/10/14 10:13:12;;;;;;;9.98;5.35;;;;;;;;;;5033555;28;20083;-54
2023/10/14 10:15:38;;;;;;;7.78;4.57;;;38.40;74.70;;;;;;5033289;28;20559;-54
2023/10/14 10:18:12;;;;;;;8.13;5.20;;;38.60;75.20;;;;;;5033154;28;20057;-55
2023/10/14 10:20:47;;;;;;;8.00;5.25;;;38.30;76.00;;;;;;5033169;28;20034;-54
2023/10/14 10:23:14;;;;;;;9.40;4.80;;;38.90;75.40;;;;;;5033263;28;20025;-55
2023/10/14 10:25:47;;;;;;;8.70;4.30;;;39.20;75.10;;;;;;5030914;28;20484;-54
2023/10/14 10:28:27;;;;;;;8.75;4.82;;;39.00;74.00;;;;;;5033147;28;20124;-54
2023/10/14 10:30:55;;;;;;;7.78;4.88;;;38.80;74.60;;;;;;5032927;28;20465;-54
2023/10/14 10:33:23;;;;;;;8.00;4.70;;;38.80;73.80;;;;;;5031962;28;20083;-54
2023/10/14 10:36:03;;;;;;;10.98;4.88;;;38.60;74.20;;;;;;5033153;28;20386;-55
2023/10/14 10:38:30;;;;;;;9.27;4.38;;;;;;;;;;5032848;28;20385;-55
2023/10/14 10:41:31;;;;;;;5.55;4.28;;;38.10;73.20;;;;;;5032790;28;20485;-55
2023/10/14 10:44:05;;;;;;;6.85;4.15;;;37.50;73.60;;;;;;5030349;28;20318;-54
2023/10/14 10:46:42;;;;;;;6.55;3.63;;;37.90;73.30;;;;;;5030204;28;20508;-54
2023/10/14 10:49:11;;;;;;;8.35;4.38;;;38.00;72.60;;;;;;5030324;28;20033;-55
2023/10/14 10:52:13;;;;;;;11.50;4.10;;;37.90;72.20;;;;;;5030271;28;20073;-54
2023/10/14 10:54:43;;;;;;;9.50;4.72;;;38.20;72.30;;;;;;5027668;28;20052;-55
2023/10/14 10:57:11;;;;;;;11.82;4.80;;;37.60;74.10;;;;;;5030159;28;20029;-55
2023/10/14 10:59:38;;;;;;;11.82;4.10;;;38.20;73.30;;;;;;5030166;28;20046;-54
2023/10/14 11:02:13;;;;;;;10.88;4.35;;;;;;;;;;4997037;28;20043;-54
2023/10/14 11:04:41;;;;;;;7.07;4.25;;;36.70;73.10;;;;;;5029892;28;20045;-54
2023/10/14 11:07:11;;;;;;;7.43;4.32;;;36.20;74.10;;;;;;5029883;28;20060;-54
2023/10/14 11:09:39;;;;;;;9.13;4.38;;;36.50;73.70;;;;;;5029336;28;20393;-54
2023/10/14 11:12:11;;;;;;;14.77;4.10;;;36.10;73.70;;;;;;5029660;28;20037;-54
2023/10/14 11:14:38;;;;;;;8.55;4.70;;;36.60;74.10;;;;;;5027512;28;20052;-54
2023/10/14 11:17:05;;;;;;;5.88;5.00;;;36.50;75.30;;;;;;5032929;28;20061;-54
2023/10/14 11:19:32;;;;;;;6.35;4.47;;;36.50;74.80;;;;;;5052179;28;20124;-54
2023/10/14 11:21:59;;;;;;;7.72;4.53;;;;;;;;;;5051897;28;20057;-54
2023/10/14 11:24:25;;;;;;;7.13;4.03;;;36.10;73.30;;;;;;5052200;28;20029;-54
2023/10/14 11:26:53;;;;;;;7.70;4.60;;;36.20;74.40;;;;;;5066403;28;20048;-54
2023/10/14 11:29:24;;;;;;;9.80;6.13;;;35.60;73.50;;;;;;5049895;28;20476;-54
2023/10/14 11:31:57;;;;;;;9.15;5.88;;;35.90;75.30;;;;;;5051945;28;20039;-54
2023/10/14 11:34:23;;;;;;;8.38;5.57;;;35.20;74.30;;;;;;5049301;28;20045;-54
2023/10/14 11:36:49;;;;;;;10.15;5.68;;;35.50;74.60;;;;;;5049376;28;20124;-54
2023/10/14 11:39:18;;;;;;;13.70;6.18;;;35.50;74.60;;;;;;4983317;28;20049;-54
2023/10/14 11:41:50;;;;;;;11.77;5.85;;;35.80;74.70;;;;;;5043168;28;20025;-54
2023/10/14 11:44:20;;;;;;;10.07;4.75;;;35.60;75.30;;;;;;5032635;28;20040;-54
2023/10/14 11:46:46;;;;;;;7.70;4.03;;;35.40;74.40;;;;;;5049198;28;20033;-55
2023/10/14 11:49:15;;;;;;;18.55;5.25;;;35.40;73.90;;;;;;5049292;28;20148;-55
2023/10/14 11:51:45;;;;;;;11.05;5.25;;;;;;;;;;5049264;28;20385;-54
2023/10/14 11:54:11;;;;;;;9.20;4.57;;;;;;;;;;5049103;28;20511;-54
2023/10/14 11:56:40;;;;;;;9.00;5.32;;;;;;;;;;5031006;28;20033;-54
2023/10/14 11:59:07;;;;;;;6.07;4.82;;;;;;;;;;5029322;28;20052;-55
2023/10/14 12:01:34;;;;;;;10.32;4.72;;;33.70;85.00;;;;;;5029409;28;20034;-54
2023/10/14 12:04:04;;;;;;;8.82;4.18;;;33.70;77.00;;;;;;5029237;28;20032;-55
2023/10/14 12:06:34;;;;;;;8.75;5.18;;;34.00;75.70;;;;;;5030210;28;20560;-54
2023/10/14 12:09:05;;;;;;;8.57;4.93;;;34.00;75.80;;;;;;5032107;28;20354;-55
2023/10/14 12:11:39;;;;;;;12.95;4.60;;;34.20;76.70;;;;;;5031769;28;20472;-54
2023/10/14 12:14:07;;;;;;;7.85;5.03;;;34.20;76.60;;;;;;5031541;28;20030;-54
2023/10/14 12:16:33;;;;;;;8.30;5.05;;;33.50;76.20;;;;;;5031748;28;20044;-54
2023/10/14 12:18:59;;;;;;;9.40;4.95;;;34.00;76.20;;;;;;5031827;28;20473;-54
2023/10/14 12:21:25;;;;;;;8.85;5.13;;;34.30;76.60;;;;;;5035696;28;20172;-54
2023/10/14 12:23:51;;;;;;;8.82;4.95;;;34.30;76.90;;;;;;5049497;28;20034;-55
2023/10/14 12:26:17;;;;;;;8.98;4.63;;;33.90;77.30;;;;;;5034925;28;20048;-54
2023/10/14 12:28:43;;;;;;;8.90;4.60;;;33.40;77.20;;;;;;5035469;28;20539;-54
2023/10/14 12:31:12;;;;;;;10.30;5.20;;;33.20;77.60;;;;;;5035295;28;20127;-55
2023/10/14 12:33:39;;;;;;;10.55;5.78;;;33.40;77.00;;;;;;5035211;28;20120;-54
2023/10/14 12:36:17;;;;;;;9.93;4.90;;;33.50;77.20;;;;;;5035222;28;20053;-55
2023/10/14 12:38:43;;;;;;;11.77;4.78;;;33.00;77.20;;;;;;5032458;28;20394;-55
2023/10/14 12:41:21;;;;;;;14.63;4.90;;;32.90;77.50;;;;;;5032581;28;20164;-54
2023/10/14 12:43:51;;;;;;;6.63;5.35;;;33.00;77.30;;;;;;5032681;28;20041;-55
2023/10/14 12:48:46;;;;;;;14.00;6.60;;;33.30;77.10;;;;;;5032566;28;20038;-55
2023/10/14 12:51:30;;;;;;;8.48;5.40;;;33.50;77.60;;;;;;5032563;28;20075;-55
2023/10/14 12:54:00;;;;;;;6.70;5.05;;;33.60;76.70;;;;;;5032193;28;20139;-54
2023/10/14 12:56:26;;;;;;;10.23;5.13;;;33.20;77.30;;;;;;5032532;28;20034;-54
2023/10/14 12:58:53;;;;;;;9.80;4.30;;;33.80;76.70;;;;;;5032336;28;20037;-54
2023/10/14 13:01:20;;;;;;;7.47;3.50;;;33.80;75.70;;;;;;5032384;28;20040;-55
2023/10/14 13:03:53;;;;;;;9.60;4.22;;;33.70;75.60;;;;;;5032170;28;20555;-54
2023/10/14 13:06:23;;;;;;;9.63;3.70;;;33.90;75.20;;;;;;5032083;28;20037;-54
2023/10/14 13:08:53;;;;;;;7.25;4.18;;;33.90;75.10;;;;;;4998980;28;20045;-54
2023/10/14 13:11:19;;;;;;;7.45;4.63;;;34.10;74.90;;;;;;5032119;28;20030;-54
2023/10/14 13:13:50;;;;;;;7.40;4.53;;;34.20;76.20;;;;;;5032251;28;20052;-54
2023/10/14 13:16:20;;;;;;;11.07;5.00;;;34.00;75.70;;;;;;5031896;28;20528;-54
2023/10/14 13:18:49;;;;;;;8.23;5.63;;;33.80;76.70;;;;;;5032002;28;20648;-54
2023/10/14 13:21:18;;;;;;;7.55;4.85;;;33.20;76.70;;;;;;5032005;28;20037;-54
2023/10/14 13:23:44;;;;;;;9.20;4.65;;;33.00;76.10;;;;;;5032146;28;20474;-54
2023/10/14 13:26:10;;;;;;;9.82;4.32;;;33.10;76.70;;;;;;5034181;28;20033;-54
2023/10/14 13:28:36;;;;;;;7.88;3.53;;;33.20;76.00;;;;;;5034664;28;20056;-55
2023/10/14 13:31:04;;;;;;;7.75;4.10;;;33.30;76.10;;;;;;5033734;28;20085;-55
2023/10/14 13:33:30;;;;;;;7.20;3.90;;;33.30;75.90;;;;;;5034361;28;20447;-54
2023/10/14 13:35:56;;;;;;;10.20;4.20;;;33.30;76.30;;;;;;5034142;28;20033;-54
2023/10/14 13:38:23;;;;;;;7.57;4.10;;;33.30;76.00;;;;;;5033965;28;20037;-54
2023/10/14 13:40:50;;;;;;;9.18;4.65;;;33.30;76.10;;;;;;5034049;28;20033;-54